createdAt,value
2022-07-25T00:01:49.809Z,66.48
2022-07-25T00:04:18.820Z,66.42
2022-07-25T00:06:46.835Z,66.48
2022-07-25T00:09:14.273Z,66.49
2022-07-25T00:11:43.025Z,66.52
2022-07-25T00:14:10.338Z,66.56
2022-07-25T00:16:37.708Z,66.68
2022-07-25T00:19:04.644Z,66.87
2022-07-25T00:21:31.672Z,66.86
2022-07-25T00:23:58.905Z,66.90
2022-07-25T00:26:25.645Z,66.93
2022-07-25T00:28:52.437Z,66.95
2022-07-25T00:31:19.368Z,66.92
2022-07-25T00:33:46.195Z,66.94
2022-07-25T00:36:13.626Z,67.03
2022-07-25T00:38:40.580Z,67.14
2022-07-25T00:41:07.494Z,67.21
2022-07-25T00:43:34.471Z,67.13
2022-07-25T00:46:01.535Z,67.17
2022-07-25T00:48:29.255Z,67.27
2022-07-25T00:50:57.217Z,67.34
2022-07-25T00:53:25.700Z,67.46
2022-07-25T00:55:53.505Z,67.45
2022-07-25T00:58:20.933Z,67.48
2022-07-25T01:00:48.804Z,67.56
2022-07-25T01:03:17.045Z,67.66
2022-07-25T01:05:44.840Z,67.70
2022-07-25T01:08:12.896Z,67.98
2022-07-25T01:10:39.689Z,68.11
2022-07-25T01:13:06.464Z,68.18
2022-07-25T01:15:33.436Z,68.24
2022-07-25T01:18:00.620Z,68.45
2022-07-25T01:20:30.130Z,68.46
2022-07-25T01:22:57.685Z,68.36
2022-07-25T01:25:24.926Z,68.58
2022-07-25T01:27:55.702Z,68.66
2022-07-25T01:30:24.980Z,68.67
2022-07-25T01:32:52.547Z,68.89
2022-07-25T01:35:20.085Z,68.80
2022-07-25T01:37:47.163Z,69.02
2022-07-25T01:40:14.978Z,68.90
2022-07-25T01:42:43.088Z,69.07
2022-07-25T01:45:11.853Z,69.23
2022-07-25T01:47:39.211Z,69.19
2022-07-25T01:50:07.279Z,69.15
2022-07-25T01:52:34.176Z,69.30
2022-07-25T01:55:01.015Z,69.44
2022-07-25T01:57:30.731Z,69.44
2022-07-25T01:59:59.391Z,69.44
2022-07-25T02:02:26.506Z,69.61
2022-07-25T02:04:54.744Z,69.74
2022-07-25T02:07:21.694Z,69.49
2022-07-25T02:09:51.073Z,69.67
2022-07-25T02:12:21.681Z,69.85
2022-07-25T02:14:48.678Z,69.69
2022-07-25T02:17:15.620Z,69.80
2022-07-25T02:19:42.628Z,69.94
2022-07-25T02:22:09.671Z,69.96
2022-07-25T02:24:37.412Z,69.95
2022-07-25T02:27:05.462Z,70.03
2022-07-25T02:29:33.015Z,70.21
2022-07-25T02:32:00.372Z,70.25
2022-07-25T02:34:27.201Z,70.19
2022-07-25T02:36:54.458Z,70.23
2022-07-25T02:39:21.751Z,70.05
2022-07-25T02:41:48.671Z,70.12
2022-07-25T02:44:15.519Z,70.26
2022-07-25T02:46:42.461Z,70.39
2022-07-25T02:49:10.106Z,70.39
2022-07-25T02:51:36.912Z,70.42
2022-07-25T02:54:03.853Z,70.33
2022-07-25T02:56:32.105Z,70.60
2022-07-25T02:59:00.036Z,70.40
2022-07-25T03:01:27.196Z,70.16
2022-07-25T03:03:54.242Z,70.42
2022-07-25T03:06:21.104Z,70.56
2022-07-25T03:08:47.923Z,70.47
2022-07-25T03:11:14.965Z,70.36
2022-07-25T03:13:41.827Z,70.26
2022-07-25T03:16:10.140Z,70.46
2022-07-25T03:18:37.139Z,70.43
2022-07-25T03:21:04.277Z,70.32
2022-07-25T03:23:31.491Z,70.51
2022-07-25T03:25:59.089Z,70.66
2022-07-25T03:28:26.060Z,70.64
2022-07-25T03:30:53.597Z,70.56
2022-07-25T03:33:20.663Z,70.52
2022-07-25T03:35:47.553Z,70.57
2022-07-25T03:38:14.465Z,70.61
2022-07-25T03:40:41.489Z,70.51
2022-07-25T03:43:08.383Z,70.61
2022-07-25T03:45:35.963Z,70.53
2022-07-25T03:48:02.830Z,70.32
2022-07-25T03:50:29.634Z,70.34
2022-07-25T03:52:56.419Z,70.25
2022-07-25T03:55:23.767Z,70.21
2022-07-25T03:57:51.121Z,70.26
2022-07-25T04:00:18.348Z,70.11
2022-07-25T04:02:45.281Z,70.18
2022-07-25T04:05:12.211Z,70.17
2022-07-25T04:07:39.733Z,70.25
2022-07-25T04:10:07.849Z,70.18
2022-07-25T04:12:35.559Z,70.14
2022-07-25T04:15:02.391Z,69.93
2022-07-25T04:17:29.336Z,69.87
2022-07-25T04:19:57.360Z,69.84
2022-07-25T04:22:24.255Z,70.11
2022-07-25T04:24:51.341Z,70.16
2022-07-25T04:27:18.228Z,69.89
2022-07-25T04:29:45.190Z,69.84
2022-07-25T04:32:12.198Z,69.47
2022-07-25T04:34:39.319Z,69.39
2022-07-25T04:37:06.147Z,69.12
2022-07-25T04:39:33.076Z,69.08
2022-07-25T04:42:00.123Z,68.96
2022-07-25T04:44:27.016Z,68.84
2022-07-25T04:46:53.957Z,68.86
2022-07-25T04:49:20.751Z,68.43
2022-07-25T04:51:47.905Z,67.86
2022-07-25T04:54:14.846Z,67.82
2022-07-25T04:56:41.948Z,67.86
2022-07-25T04:59:08.732Z,67.90
2022-07-25T05:01:36.058Z,67.90
2022-07-25T05:04:03.097Z,67.71
2022-07-25T05:06:30.085Z,67.14
2022-07-25T05:08:56.868Z,67.13
2022-07-25T05:11:23.690Z,67.19
2022-07-25T05:13:50.461Z,66.88
2022-07-25T05:16:17.301Z,66.69
2022-07-25T05:18:44.516Z,66.59
2022-07-25T05:21:12.947Z,66.58
2022-07-25T05:23:41.381Z,66.66
2022-07-25T05:26:08.322Z,66.42
2022-07-25T05:28:35.200Z,66.06
2022-07-25T05:31:02.353Z,65.87
2022-07-25T05:33:29.909Z,65.77
2022-07-25T05:35:56.699Z,65.65
2022-07-25T05:38:23.545Z,65.55
2022-07-25T05:40:52.637Z,65.77
2022-07-25T05:43:19.811Z,65.61
2022-07-25T05:45:50.027Z,65.48
2022-07-25T05:48:17.263Z,65.26
2022-07-25T05:50:46.407Z,65.08
2022-07-25T05:53:13.164Z,64.85
2022-07-25T05:55:40.850Z,64.55
2022-07-25T05:58:09.687Z,64.21
2022-07-25T06:00:37.636Z,63.76
2022-07-25T06:03:05.159Z,63.76
2022-07-25T06:05:32.657Z,63.60
2022-07-25T06:07:59.685Z,63.55
2022-07-25T06:10:26.632Z,63.40
2022-07-25T06:12:53.424Z,63.37
2022-07-25T06:15:26.728Z,63.52
2022-07-25T06:17:55.008Z,63.71
2022-07-25T06:20:21.983Z,63.75
2022-07-25T06:22:49.139Z,63.79
2022-07-25T06:25:16.249Z,63.75
2022-07-25T06:27:43.746Z,63.64
2022-07-25T06:30:19.575Z,63.62
2022-07-25T06:32:48.217Z,63.48
2022-07-25T06:35:15.839Z,63.56
2022-07-25T06:37:42.783Z,63.41
2022-07-25T06:40:09.832Z,63.45
2022-07-25T06:42:41.355Z,63.44
2022-07-25T06:45:10.108Z,63.50
2022-07-25T06:47:41.665Z,63.25
2022-07-25T06:50:12.203Z,62.96
2022-07-25T06:52:40.255Z,62.60
2022-07-25T06:55:09.268Z,62.45
2022-07-25T06:57:36.834Z,62.09
2022-07-25T07:00:10.023Z,62.11
2022-07-25T07:02:52.896Z,62.12
2022-07-25T07:05:20.987Z,61.82
2022-07-25T07:07:48.333Z,61.49
2022-07-25T07:10:16.759Z,61.48
2022-07-25T07:12:43.613Z,61.38
2022-07-25T07:15:11.833Z,60.90
2022-07-25T07:17:39.112Z,60.58
2022-07-25T07:20:08.442Z,60.32
2022-07-25T07:22:47.502Z,60.10
2022-07-25T07:25:16.487Z,59.86
2022-07-25T07:27:45.121Z,59.87
2022-07-25T07:30:15.031Z,59.64
2022-07-25T07:32:43.719Z,59.48
2022-07-25T07:35:11.561Z,59.30
2022-07-25T07:37:43.368Z,59.26
2022-07-25T07:40:17.680Z,59.30
2022-07-25T07:42:47.323Z,58.73
2022-07-25T07:45:28.553Z,58.06
2022-07-25T07:47:56.485Z,57.57
2022-07-25T07:50:26.134Z,57.64
2022-07-25T07:52:55.346Z,57.59
2022-07-25T07:55:41.814Z,57.62
2022-07-25T07:58:08.944Z,57.50
2022-07-25T08:00:39.348Z,57.43
2022-07-25T08:03:10.149Z,57.53
2022-07-25T08:05:40.346Z,56.86
2022-07-25T08:08:09.659Z,56.18
2022-07-25T08:10:39.726Z,55.61
2022-07-25T08:13:38.337Z,55.52
2022-07-25T08:16:05.671Z,55.42
2022-07-25T08:18:33.617Z,54.99
2022-07-25T08:21:06.362Z,54.79
2022-07-25T08:23:39.242Z,54.20
2022-07-25T08:26:06.832Z,53.63
2022-07-25T08:28:33.760Z,53.25
2022-07-25T08:31:00.917Z,52.87
2022-07-25T08:33:28.854Z,52.96
2022-07-25T08:35:59.076Z,53.50
2022-07-25T08:38:28.777Z,52.98
2022-07-25T08:40:56.988Z,52.50
2022-07-25T08:43:24.406Z,52.41
2022-07-25T08:45:55.452Z,51.45
2022-07-25T08:48:25.498Z,51.30
2022-07-25T08:50:54.759Z,50.84
2022-07-25T08:53:37.722Z,50.56
2022-07-25T08:56:13.427Z,50.41
2022-07-25T08:58:44.178Z,50.17
2022-07-25T09:01:12.887Z,50.55
2022-07-25T09:03:40.630Z,49.93
2022-07-25T09:06:16.582Z,49.86
2022-07-25T09:08:54.289Z,49.72
2022-07-25T09:11:31.501Z,49.58
2022-07-25T09:14:08.200Z,49.00
2022-07-25T09:16:38.998Z,48.24
2022-07-25T09:19:13.090Z,48.26
2022-07-25T09:21:41.275Z,47.80
2022-07-25T09:24:18.835Z,47.57
2022-07-25T09:26:51.829Z,47.23
2022-07-25T09:29:30.501Z,46.13
2022-07-25T09:31:58.982Z,46.05
2022-07-25T09:34:40.635Z,46.05
2022-07-25T09:37:14.851Z,45.49
2022-07-25T09:39:47.298Z,45.26
2022-07-25T09:42:21.417Z,44.93
2022-07-25T09:45:26.062Z,45.16
2022-07-25T09:48:04.152Z,45.12
2022-07-25T09:50:33.140Z,44.73
2022-07-25T09:53:03.044Z,43.70
2022-07-25T09:55:31.654Z,43.91
2022-07-25T09:57:59.310Z,44.23
2022-07-25T10:00:29.016Z,43.72
2022-07-25T10:02:55.784Z,43.86
2022-07-25T10:05:31.971Z,43.82
2022-07-25T10:07:59.887Z,43.37
2022-07-25T10:10:28.894Z,43.13
2022-07-25T10:13:09.949Z,42.88
2022-07-25T10:15:41.107Z,42.82
2022-07-25T10:18:08.684Z,42.89
2022-07-25T10:20:35.821Z,41.76
2022-07-25T10:23:02.671Z,41.62
2022-07-25T10:25:29.639Z,41.19
2022-07-25T10:28:03.632Z,40.85
2022-07-25T10:30:40.170Z,40.36
2022-07-25T10:33:19.432Z,40.46
2022-07-25T10:35:46.266Z,40.44
2022-07-25T10:38:13.491Z,40.35
2022-07-25T10:40:44.716Z,39.79
2022-07-25T10:43:22.849Z,39.65
2022-07-25T10:45:52.586Z,39.51
2022-07-25T10:48:28.975Z,39.76
2022-07-25T10:51:01.524Z,39.22
2022-07-25T10:53:36.483Z,39.25
2022-07-25T10:56:24.263Z,39.34
2022-07-25T10:58:55.517Z,39.36
2022-07-25T11:01:31.354Z,38.91
2022-07-25T11:04:03.785Z,38.60
2022-07-25T11:06:33.666Z,38.27
2022-07-25T11:09:01.538Z,37.69
2022-07-25T11:11:41.100Z,37.58
2022-07-25T11:14:41.669Z,37.23
2022-07-25T11:17:20.656Z,36.63
2022-07-25T11:19:54.842Z,36.99
2022-07-25T11:22:22.134Z,36.61
2022-07-25T11:24:49.246Z,36.33
2022-07-25T11:27:25.705Z,36.25
2022-07-25T11:29:52.713Z,36.07
2022-07-25T11:32:19.723Z,35.60
2022-07-25T11:34:54.088Z,35.43
2022-07-25T11:37:22.303Z,35.22
2022-07-25T11:39:49.853Z,34.74
2022-07-25T11:42:19.465Z,35.02
2022-07-25T11:44:51.843Z,34.89
2022-07-25T11:47:33.677Z,34.52
2022-07-25T11:50:04.154Z,34.66
2022-07-25T11:52:36.946Z,34.37
2022-07-25T11:55:07.059Z,33.76
2022-07-25T11:57:37.033Z,33.18
2022-07-25T12:00:11.863Z,33.01
2022-07-25T12:02:38.991Z,32.94
2022-07-25T12:05:08.625Z,32.35
2022-07-25T12:07:49.827Z,32.10
2022-07-25T12:10:18.834Z,32.46
2022-07-25T12:12:57.974Z,32.25
2022-07-25T12:15:27.549Z,32.74
2022-07-25T12:17:56.914Z,32.46
2022-07-25T12:20:26.651Z,32.71
2022-07-25T12:22:56.302Z,32.57
2022-07-25T12:25:28.871Z,32.69
2022-07-25T12:27:59.367Z,32.63
2022-07-25T12:30:30.536Z,32.70
2022-07-25T12:32:58.857Z,32.68
2022-07-25T12:35:26.466Z,33.20
2022-07-25T12:37:55.792Z,32.47
2022-07-25T12:40:22.636Z,32.62
2022-07-25T12:42:50.014Z,32.44
2022-07-25T12:45:18.158Z,32.32
2022-07-25T12:47:46.478Z,31.99
2022-07-25T12:50:14.310Z,31.69
2022-07-25T12:52:42.219Z,31.56
2022-07-25T12:55:13.539Z,31.55
2022-07-25T12:57:40.774Z,31.29
2022-07-25T13:00:12.459Z,30.73
2022-07-25T13:02:39.391Z,30.57
2022-07-25T13:05:07.688Z,30.42
2022-07-25T13:07:34.932Z,30.33
2022-07-25T13:10:03.800Z,30.84
2022-07-25T13:12:31.461Z,30.75
2022-07-25T13:14:58.282Z,30.74
2022-07-25T13:17:27.442Z,30.75
2022-07-25T13:19:56.155Z,30.09
2022-07-25T13:22:23.968Z,30.41
2022-07-25T13:24:51.402Z,30.52
2022-07-25T13:27:19.582Z,30.87
2022-07-25T13:29:47.291Z,30.87
2022-07-25T13:32:14.646Z,31.00
2022-07-25T13:34:42.048Z,31.16
2022-07-25T13:37:09.535Z,31.11
2022-07-25T13:39:38.513Z,30.57
2022-07-25T13:42:08.028Z,30.38
2022-07-25T13:44:34.969Z,29.89
2022-07-25T13:47:02.177Z,30.01
2022-07-25T13:49:29.265Z,29.62
2022-07-25T13:51:56.291Z,29.61
2022-07-25T13:54:23.119Z,29.59
2022-07-25T13:56:49.903Z,29.72
2022-07-25T13:59:21.205Z,29.07
2022-07-25T14:01:48.673Z,29.19
2022-07-25T14:04:15.630Z,28.86
2022-07-25T14:06:43.653Z,28.88
2022-07-25T14:09:10.801Z,28.52
2022-07-25T14:11:37.898Z,28.44
2022-07-25T14:14:04.844Z,28.39
2022-07-25T14:16:34.426Z,27.80
2022-07-25T14:19:02.535Z,27.92
2022-07-25T14:21:30.692Z,27.88
2022-07-25T14:23:57.943Z,28.45
2022-07-25T14:26:25.937Z,28.20
2022-07-25T14:28:52.715Z,28.19
2022-07-25T14:31:19.665Z,28.49
2022-07-25T14:33:46.514Z,28.81
2022-07-25T14:36:13.515Z,28.79
2022-07-25T14:38:40.335Z,28.57
2022-07-25T14:41:12.846Z,28.57
2022-07-25T14:43:41.289Z,28.12
2022-07-25T14:46:09.221Z,28.47
2022-07-25T14:48:38.019Z,28.39
2022-07-25T14:51:06.224Z,28.09
2022-07-25T14:53:34.504Z,28.64
2022-07-25T14:56:03.084Z,28.75
2022-07-25T14:58:29.977Z,28.49
2022-07-25T15:00:56.919Z,28.47
2022-07-25T15:03:23.907Z,27.99
2022-07-25T15:05:50.732Z,28.13
2022-07-25T15:08:17.680Z,28.11
2022-07-25T15:10:44.609Z,28.06
2022-07-25T15:13:30.364Z,28.10
2022-07-25T15:15:59.035Z,28.41
2022-07-25T15:18:26.068Z,27.84
2022-07-25T15:20:52.823Z,27.64
2022-07-25T15:23:21.372Z,27.74
2022-07-25T15:26:04.656Z,27.97
2022-07-25T15:28:38.534Z,27.70
2022-07-25T15:31:06.781Z,28.10
2022-07-25T15:33:34.241Z,28.16
2022-07-25T15:36:02.111Z,27.86
2022-07-25T15:38:29.741Z,27.83
2022-07-25T15:40:57.715Z,27.75
2022-07-25T15:43:25.084Z,27.45
2022-07-25T15:45:52.384Z,27.20
2022-07-25T15:48:19.942Z,27.32
2022-07-25T15:50:51.802Z,27.45
2022-07-25T15:53:18.949Z,27.79
2022-07-25T15:55:45.788Z,27.70
2022-07-25T15:58:13.275Z,27.81
2022-07-25T16:00:40.953Z,28.14
2022-07-25T16:03:08.227Z,27.73
2022-07-25T16:05:35.392Z,27.94
2022-07-25T16:08:02.535Z,27.74
2022-07-25T16:10:31.851Z,27.88
2022-07-25T16:12:59.194Z,28.42
2022-07-25T16:15:26.581Z,28.38
2022-07-25T16:18:01.860Z,28.56
2022-07-25T16:20:31.823Z,28.90
2022-07-25T16:22:59.664Z,29.46
2022-07-25T16:25:28.402Z,29.21
2022-07-25T16:27:55.614Z,29.57
2022-07-25T16:30:22.808Z,29.62
2022-07-25T16:32:49.916Z,29.70
2022-07-25T16:35:17.016Z,29.35
2022-07-25T16:37:43.901Z,29.66
2022-07-25T16:40:11.282Z,29.84
2022-07-25T16:42:38.471Z,30.04
2022-07-25T16:45:06.637Z,30.07
2022-07-25T16:47:33.580Z,30.53
2022-07-25T16:50:01.059Z,30.83
2022-07-25T16:52:27.881Z,31.02
2022-07-25T16:54:54.730Z,31.05
2022-07-25T16:57:24.802Z,31.35
2022-07-25T16:59:53.804Z,31.58
2022-07-25T17:02:27.483Z,31.79
2022-07-25T17:04:56.129Z,32.09
2022-07-25T17:07:23.035Z,32.43
2022-07-25T17:09:49.984Z,32.57
2022-07-25T17:12:17.724Z,32.69
2022-07-25T17:14:45.680Z,33.05
2022-07-25T17:17:12.517Z,33.20
2022-07-25T17:19:42.749Z,33.39
2022-07-25T17:22:10.208Z,33.64
2022-07-25T17:24:38.123Z,33.50
2022-07-25T17:27:06.612Z,34.00
2022-07-25T17:29:33.905Z,34.26
2022-07-25T17:32:00.804Z,34.52
2022-07-25T17:34:27.759Z,34.97
2022-07-25T17:36:55.302Z,35.47
2022-07-25T17:39:22.124Z,35.47
2022-07-25T17:41:49.309Z,35.75
2022-07-25T17:44:16.450Z,35.97
2022-07-25T17:46:43.738Z,36.06
2022-07-25T17:49:10.766Z,36.18
2022-07-25T17:51:37.662Z,36.42
2022-07-25T17:54:04.824Z,36.88
2022-07-25T17:56:33.331Z,37.00
2022-07-25T17:59:00.118Z,37.12
2022-07-25T18:01:26.931Z,37.37
2022-07-25T18:03:53.702Z,37.62
2022-07-25T18:06:20.518Z,38.05
2022-07-25T18:08:47.592Z,38.09
2022-07-25T18:11:14.427Z,38.19
2022-07-25T18:13:41.266Z,38.34
2022-07-25T18:16:09.264Z,38.62
2022-07-25T18:18:36.192Z,38.62
2022-07-25T18:21:03.444Z,38.92
2022-07-25T18:23:30.903Z,39.05
2022-07-25T18:25:57.978Z,39.15
2022-07-25T18:28:24.992Z,39.24
2022-07-25T18:30:52.438Z,39.31
2022-07-25T18:33:20.473Z,39.53
2022-07-25T18:35:47.510Z,39.69
2022-07-25T18:38:14.281Z,39.83
2022-07-25T18:40:41.092Z,40.00
2022-07-25T18:43:08.724Z,40.22
2022-07-25T18:45:37.611Z,40.12
2022-07-25T18:48:06.422Z,40.33
2022-07-25T18:50:33.274Z,40.53
2022-07-25T18:53:00.183Z,40.54
2022-07-25T18:55:27.103Z,40.57
2022-07-25T18:57:53.892Z,40.60
2022-07-25T19:00:20.624Z,40.64
2022-07-25T19:02:47.563Z,40.77
2022-07-25T19:05:14.992Z,40.75
2022-07-25T19:07:42.470Z,40.92
2022-07-25T19:10:10.434Z,41.06
2022-07-25T19:12:37.869Z,41.02
2022-07-25T19:15:05.674Z,41.09
2022-07-25T19:17:34.059Z,41.28
2022-07-25T19:20:01.369Z,41.31
2022-07-25T19:22:28.181Z,41.39
2022-07-25T19:24:54.979Z,41.59
2022-07-25T19:27:25.236Z,41.44
2022-07-25T19:29:52.088Z,41.78
2022-07-25T19:32:19.094Z,41.86
2022-07-25T19:34:45.940Z,42.07
2022-07-25T19:37:12.729Z,42.16
2022-07-25T19:39:39.751Z,42.39
2022-07-25T19:42:08.902Z,42.64
2022-07-25T19:44:36.931Z,42.83
2022-07-25T19:47:07.179Z,43.06
2022-07-25T19:49:36.780Z,43.37
2022-07-25T19:52:03.783Z,43.62
2022-07-25T19:54:30.618Z,43.88
2022-07-25T19:56:58.001Z,43.98
2022-07-25T19:59:24.841Z,43.92
2022-07-25T20:01:52.237Z,44.11
2022-07-25T20:04:19.212Z,44.24
2022-07-25T20:06:46.198Z,44.41
2022-07-25T20:09:14.268Z,44.55
2022-07-25T20:11:41.896Z,44.68
2022-07-25T20:14:09.596Z,44.73
2022-07-25T20:16:37.765Z,44.59
2022-07-25T20:19:07.247Z,44.61
2022-07-25T20:21:37.178Z,44.72
2022-07-25T20:24:04.459Z,44.70
2022-07-25T20:26:31.685Z,44.83
2022-07-25T20:28:58.724Z,44.63
2022-07-25T20:31:26.009Z,44.93
2022-07-25T20:33:53.145Z,44.85
2022-07-25T20:36:20.524Z,45.26
2022-07-25T20:38:47.427Z,45.12
2022-07-25T20:41:15.458Z,45.13
2022-07-25T20:43:42.711Z,45.06
2022-07-25T20:46:09.743Z,45.28
2022-07-25T20:48:37.001Z,45.09
2022-07-25T20:51:04.788Z,45.07
2022-07-25T20:53:32.768Z,45.07
2022-07-25T20:55:59.694Z,45.32
2022-07-25T20:58:26.758Z,45.23
2022-07-25T21:00:53.795Z,45.04
2022-07-25T21:03:20.897Z,45.12
2022-07-25T21:05:47.880Z,45.25
2022-07-25T21:08:15.517Z,45.28
2022-07-25T21:10:42.502Z,45.45
2022-07-25T21:13:09.551Z,45.65
2022-07-25T21:15:37.506Z,45.80
2022-07-25T21:18:04.555Z,45.90
2022-07-25T21:20:31.909Z,45.92
2022-07-25T21:22:58.787Z,46.38
2022-07-25T21:25:25.799Z,46.26
2022-07-25T21:27:52.713Z,46.57
2022-07-25T21:30:20.121Z,46.87
2022-07-25T21:32:47.277Z,46.88
2022-07-25T21:35:14.089Z,47.06
2022-07-25T21:37:41.120Z,47.17
2022-07-25T21:40:08.867Z,47.27
2022-07-25T21:42:36.919Z,47.30
2022-07-25T21:45:04.966Z,47.37
2022-07-25T21:47:31.898Z,47.70
2022-07-25T21:50:24.530Z,47.49
2022-07-25T21:52:53.692Z,47.84
2022-07-25T21:55:22.020Z,47.86
2022-07-25T21:57:49.850Z,48.01
2022-07-25T22:00:17.460Z,48.25
2022-07-25T22:02:46.203Z,48.09
2022-07-25T22:05:14.892Z,48.32
2022-07-25T22:07:42.959Z,48.56
2022-07-25T22:10:11.642Z,48.44
2022-07-25T22:12:39.679Z,48.37
2022-07-25T22:15:12.110Z,48.63
2022-07-25T22:17:48.507Z,48.73
2022-07-25T22:20:17.438Z,48.72
2022-07-25T22:22:44.414Z,48.65
2022-07-25T22:25:11.469Z,48.73
2022-07-25T22:27:38.464Z,48.91
2022-07-25T22:30:06.023Z,48.88
2022-07-25T22:32:33.349Z,49.11
2022-07-25T22:35:00.203Z,48.93
2022-07-25T22:37:27.090Z,49.01
2022-07-25T22:40:01.491Z,48.99
2022-07-25T22:42:28.626Z,49.05
2022-07-25T22:44:55.504Z,49.13
2022-07-25T22:47:22.318Z,49.10
2022-07-25T22:49:49.141Z,49.14
2022-07-25T22:52:15.941Z,49.30
2022-07-25T22:54:42.807Z,49.23
2022-07-25T22:57:09.935Z,49.28
2022-07-25T22:59:36.807Z,49.26
2022-07-25T23:02:03.682Z,49.37
2022-07-25T23:04:30.533Z,49.29
2022-07-25T23:06:57.310Z,49.31
2022-07-25T23:09:24.188Z,49.52
2022-07-25T23:12:00.786Z,49.67
2022-07-25T23:14:27.786Z,49.47
2022-07-25T23:17:13.243Z,49.55
2022-07-25T23:19:40.006Z,49.65
2022-07-25T23:22:06.942Z,49.62
2022-07-25T23:24:37.588Z,49.67
2022-07-25T23:27:05.723Z,49.78
2022-07-25T23:29:32.637Z,49.82
2022-07-25T23:31:59.829Z,49.97
2022-07-25T23:34:26.862Z,50.01
2022-07-25T23:36:53.705Z,50.15
2022-07-25T23:39:20.480Z,50.29
2022-07-25T23:41:47.277Z,50.28
2022-07-25T23:44:14.231Z,50.52
2022-07-25T23:46:41.770Z,50.49
2022-07-25T23:49:11.425Z,50.67
2022-07-25T23:51:39.342Z,50.67
2022-07-25T23:54:06.337Z,50.74
2022-07-25T23:56:33.371Z,50.78
2022-07-25T23:59:00.993Z,50.92
